Hardy, Virginia
Current Conditions -  °F | °C
As of 7:54 AM on Friday 19 Dec 2014 (Local Time) from KROA Reporting Station
Few Clouds Few Clouds  
Wind Chill: 26°   Ceiling: Unl
Heat Index: 32°   Visibility: 10mi
Dew Point: 20°   Wind: 7mph
Humidity: 61%   Direction: 340°NNW
Pressure: 30.17"   Gusts: NA
Location:  37.17°N, 79.73°W
Report Text: KROA 191254Z 34006KT 10SM FEW020 00/M07 A3017 RMK AO2 SLP224 T00001067
Loading
Personal Weather Stations






























Interactive Weather Map New forecast layout! Learn more

10-Day Weather Forecast

Advertisements
Track Severe Weather on mobile